Time;durP1;ratioP1;P1;durP2;ratioP2;P2;SDS_P1;SDS_P2;PMS_P1;PMS_P2;Temp;Humidity;BMP_temperature;BMP_pressure;BME280_temperature;BME280_humidity;BME280_pressure;Samples;Min_cycle;Max_cycle;Signal;HPM_P1;HPM_P2
2023/12/21 00:48:41;;;;;;;2.70;1.70;;;;;;;8.80;49.58;100573.38;1189338;24;20769;-89
2023/12/21 00:51:18;;;;;;;0.93;0.90;;;;;;;8.72;49.96;100580.47;4781141;30;20547;-93
2023/12/21 00:58:23;;;;;;;1.30;1.08;;;;;;;8.76;50.08;100582.59;4772302;29;20428;-95
2023/12/21 02:16:37;;;;;;;0.65;0.65;;;;;;;7.34;51.30;100532.84;4804286;29;20950;-92
2023/12/21 02:19:04;;;;;;;1.45;1.35;;;;;;;7.44;51.41;100530.97;4800336;29;20515;-92
2023/12/21 02:21:31;;;;;;;1.77;0.98;;;;;;;7.47;51.27;100535.09;4778084;29;20941;-92
2023/12/21 02:24:00;;;;;;;1.00;1.00;;;;;;;7.40;51.06;100540.16;4789718;29;20417;-92
2023/12/21 02:26:37;;;;;;;0.45;0.45;;;;;;;7.32;51.00;100539.28;4806171;29;20433;-92
2023/12/21 02:30:01;;;;;;;0.57;0.57;;;;;;;7.43;50.73;100554.84;4802591;29;20422;-92
2023/12/21 02:33:07;;;;;;;1.10;1.10;;;;;;;7.46;50.62;100536.09;4789133;29;20414;-92
2023/12/21 02:35:36;;;;;;;0.40;0.40;;;;;;;7.64;50.68;100538.69;4789128;29;20419;-92
2023/12/21 02:38:30;;;;;;;;;;;;;;;;;;;;;
2023/12/21 03:45:41;;;;;;;;;;;;;;;;;;;;;
2023/12/21 03:48:41;;;;;;;0.43;0.43;;;;;;;7.14;51.00;100592.84;4719135;30;20427;-95
2023/12/21 03:51:06;;;;;;;0.68;0.68;;;;;;;7.40;50.49;100611.38;4704614;30;20475;-92
2023/12/21 03:53:32;;;;;;;0.70;0.60;;;;;;;7.26;50.58;100604.81;4731500;30;20445;-91
2023/12/21 03:55:58;;;;;;;0.63;0.55;;;;;;;7.42;50.77;100608.59;4756056;30;20408;-92
2023/12/21 03:58:28;;;;;;;0.30;0.30;;;;;;;7.41;50.42;100612.19;4772421;30;20473;-93
2023/12/21 06:11:11;;;;;;;0.40;0.40;;;;;;;8.42;47.61;100665.38;4797347;29;20464;-92
2023/12/21 06:13:37;;;;;;;0.20;0.20;;;;;;;8.29;47.15;100650.94;4767272;30;20449;-91
2023/12/21 06:16:03;;;;;;;0.30;0.30;;;;;;;8.38;47.56;100673.75;4765539;30;20416;-89
2023/12/21 06:18:33;;;;;;;1.10;1.00;;;;;;;8.53;47.61;100664.28;4772389;30;20412;-90
2023/12/21 06:20:59;;;;;;;1.92;1.77;;;;;;;8.54;47.12;100649.25;4787933;30;20428;-90
2023/12/21 06:23:24;;;;;;;0.20;0.20;;;;;;;8.34;47.30;100672.41;4763603;30;20791;-90
2023/12/21 06:25:50;;;;;;;0.30;0.30;;;;;;;8.25;47.68;100655.69;4772280;29;20504;-92
2023/12/21 06:28:18;;;;;;;0.47;0.47;;;;;;;8.43;47.26;100671.50;4777134;30;20432;-91
2023/12/21 06:30:49;;;;;;;0.40;0.40;;;;;;;8.20;47.30;100658.78;4774759;30;20438;-94
2023/12/21 06:33:21;;;;;;;1.30;1.27;;;;;;;8.12;47.95;100681.66;4787211;30;20931;-91
2023/12/21 06:35:50;;;;;;;0.60;0.60;;;;;;;8.14;47.71;100682.31;4794659;30;20433;-90
2023/12/21 06:38:16;;;;;;;3.10;1.85;;;;;;;8.15;47.81;100678.72;4792567;30;20908;-92
2023/12/21 06:40:48;;;;;;;0.90;0.40;;;;;;;8.10;48.30;100679.16;4771096;30;20928;-94
2023/12/21 06:43:16;;;;;;;0.20;0.20;;;;;;;8.29;48.10;100685.25;4795135;30;20422;-94
2023/12/21 07:52:35;;;;;;;3.58;0.52;;;;;;;8.94;45.73;100698.00;4882677;24;20491;-93
2023/12/21 07:55:19;;;;;;;0.70;0.70;;;;;;;9.02;45.79;100695.38;4813726;29;20438;-91
2023/12/21 07:57:47;;;;;;;2.17;0.68;;;;;;;9.12;45.41;100705.81;4804510;30;20393;-93
2023/12/21 08:00:13;;;;;;;0.38;0.38;;;;;;;9.04;44.34;100705.78;4780669;30;20398;-93
2023/12/21 08:03:29;;;;;;;0.80;0.80;;;;;;;8.93;45.54;100707.75;4785799;30;20417;-94
2023/12/21 08:06:10;;;;;;;0.38;0.38;;;;;;;8.74;45.75;100713.28;4770670;30;20434;-94
2023/12/21 08:08:50;;;;;;;0.50;0.50;;;;;;;8.92;45.64;100711.34;4785821;30;20418;-93
2023/12/21 08:11:16;;;;;;;0.30;0.30;;;;;;;8.98;45.56;100713.38;4770826;30;20410;-92
2023/12/21 08:13:42;;;;;;;0.40;0.40;;;;;;;9.22;44.72;100732.97;4802161;29;20457;-94
2023/12/21 08:16:09;;;;;;;1.70;0.98;;;;;;;8.89;45.27;100729.34;4761069;30;20481;-93
2023/12/21 09:33:38;;;;;;;0.20;0.20;;;;;;;10.73;41.28;100652.28;4807128;29;20479;-87
2023/12/21 09:36:04;;;;;;;0.20;0.20;;;;;;;11.07;42.94;100650.16;4810505;29;20441;-87
2023/12/21 09:38:31;;;;;;;0.20;0.20;;;;;;;11.14;41.37;100649.44;4778920;29;20418;-87
2023/12/21 09:41:03;;;;;;;0.60;0.60;;;;;;;11.09;41.38;100647.28;4807446;29;20779;-90
2023/12/21 09:43:32;;;;;;;0.50;0.50;;;;;;;11.21;40.75;100629.16;4796899;29;20438;-88
2023/12/21 09:46:01;;;;;;;0.55;0.40;;;;;;;11.18;41.09;100629.50;4781419;29;20439;-92
2023/12/21 09:48:28;;;;;;;0.40;0.40;;;;;;;11.48;41.10;100633.09;4800983;29;20417;-92
2023/12/21 09:51:24;;;;;;;0.20;0.20;;;;;;;11.26;40.29;100618.84;4820351;29;20410;-93
2023/12/21 09:53:53;;;;;;;0.80;0.80;;;;;;;11.10;40.60;100633.84;4797159;29;20856;-88
2023/12/21 09:56:22;;;;;;;0.40;0.15;;;;;;;11.14;40.37;100617.59;4795877;29;20755;-91
2023/12/21 09:58:49;;;;;;;0.20;0.20;;;;;;;10.99;39.84;100602.44;4809351;29;20426;-90
2023/12/21 10:01:36;;;;;;;0.10;0.10;;;;;;;11.07;39.98;100614.81;4797023;29;20446;-89
2023/12/21 10:04:08;;;;;;;0.40;0.40;;;;;;;11.17;39.52;100609.28;4816412;29;20498;-90
2023/12/21 10:06:56;;;;;;;0.15;0.15;;;;;;;11.08;39.01;100593.41;4798305;29;20422;-91
2023/12/21 10:09:22;;;;;;;0.20;0.20;;;;;;;10.87;39.03;100606.47;4813159;29;20973;-92
2023/12/21 10:15:12;;;;;;;0.95;0.55;;;;;;;10.99;38.97;100599.78;4823986;29;20926;-92
2023/12/21 10:17:41;;;;;;;0.50;0.50;;;;;;;11.00;39.55;100597.94;4817098;29;20500;-91
2023/12/21 10:20:33;;;;;;;;;;;;;;;;;;;;;
2023/12/21 10:23:13;;;;;;;0.20;0.20;;;;;;;11.08;39.48;100590.78;4795975;29;20422;-92
2023/12/21 10:55:54;;;;;;;0.40;0.40;;;;;;;11.02;38.47;100542.91;4812269;29;20970;-90
2023/12/21 10:58:21;;;;;;;0.32;0.20;;;;;;;10.91;37.99;100525.56;4809787;29;20430;-89
2023/12/21 11:00:48;;;;;;;0.45;0.45;;;;;;;11.08;38.33;100507.72;4812746;29;20402;-85
2023/12/21 11:03:20;;;;;;;0.10;0.10;;;;;;;10.96;38.35;100504.66;4814929;29;20498;-91
2023/12/21 11:05:46;;;;;;;0.27;0.27;;;;;;;11.23;38.35;100513.88;4796996;29;20431;-87
2023/12/21 11:08:12;;;;;;;0.10;0.10;;;;;;;11.07;38.89;100506.91;4795598;29;20402;-86
2023/12/21 11:10:38;;;;;;;0.30;0.30;;;;;;;11.40;38.44;100503.13;4813731;29;20414;-88
2023/12/21 11:13:16;;;;;;;0.65;0.45;;;;;;;11.47;37.64;100504.88;4794628;29;20479;-88
2023/12/21 11:15:42;;;;;;;0.40;0.20;;;;;;;11.70;37.83;100500.50;4810744;29;20415;-87
2023/12/21 11:18:17;;;;;;;0.70;0.70;;;;;;;11.61;37.12;100505.06;4809035;29;20452;-89
2023/12/21 11:20:48;;;;;;;0.20;0.20;;;;;;;11.32;36.63;100504.00;4810366;29;20489;-89
2023/12/21 11:23:15;;;;;;;0.10;0.10;;;;;;;11.07;36.28;100496.28;4811056;29;20445;-89
2023/12/21 11:26:06;;;;;;;0.50;0.50;;;;;;;11.24;36.54;100496.97;4815179;29;20426;-91
2023/12/21 11:28:34;;;;;;;0.20;0.20;;;;;;;11.64;36.86;100467.53;4813201;29;20410;-88
2023/12/21 11:31:41;;;;;;;0.30;0.23;;;;;;;11.93;36.68;100480.00;4818480;29;20407;-88
2023/12/21 11:34:23;;;;;;;0.60;0.60;;;;;;;11.61;35.05;100489.13;4811068;29;20447;-88
2023/12/21 11:37:25;;;;;;;0.80;0.25;;;;;;;11.41;35.96;100472.91;4812317;29;20445;-87
2023/12/21 11:39:53;;;;;;;0.10;0.10;;;;;;;11.82;36.25;100477.78;4811730;29;20415;-90
2023/12/21 11:42:33;;;;;;;0.20;0.20;;;;;;;11.79;35.99;100467.53;4814274;29;20422;-88
2023/12/21 11:45:03;;;;;;;1.20;0.87;;;;;;;11.54;35.48;100466.97;4797545;29;20448;-89
2023/12/21 11:47:29;;;;;;;0.55;0.55;;;;;;;11.40;35.98;100473.94;4805133;29;20748;-88
2023/12/21 11:50:08;;;;;;;0.65;0.55;;;;;;;11.30;35.67;100500.72;4825539;29;20431;-89
2023/12/21 11:52:35;;;;;;;0.22;0.22;;;;;;;11.02;35.65;100450.91;4803315;29;20419;-88
2023/12/21 12:25:55;;;;;;;0.17;0.17;;;;;;;11.53;36.53;100422.88;4805173;29;20458;-88
2023/12/21 12:28:23;;;;;;;0.22;0.22;;;;;;;11.44;36.67;100408.88;4809760;29;20495;-90
2023/12/21 12:30:49;;;;;;;0.20;0.20;;;;;;;11.70;36.69;100419.00;4804767;29;20405;-90
2023/12/21 12:33:15;;;;;;;0.30;0.30;;;;;;;11.88;36.10;100404.53;4804753;29;20777;-91
2023/12/21 12:35:43;;;;;;;0.32;0.32;;;;;;;11.80;36.50;100400.16;4817478;29;20778;-90
2023/12/21 12:38:08;;;;;;;0.32;0.32;;;;;;;11.93;36.09;100396.84;4794621;29;21030;-91
2023/12/21 12:40:35;;;;;;;1.27;0.80;;;;;;;11.99;36.39;100388.97;4805047;29;20434;-89
2023/12/21 12:43:02;;;;;;;0.25;0.25;;;;;;;11.62;36.56;100384.59;4804307;29;20422;-89
2023/12/21 12:45:33;;;;;;;0.10;0.10;;;;;;;11.48;36.74;100370.31;4807672;29;20875;-89
2023/12/21 12:48:10;;;;;;;0.20;0.20;;;;;;;11.59;36.09;100384.97;4797639;29;20949;-89
2023/12/21 12:50:36;;;;;;;0.20;0.20;;;;;;;11.47;35.77;100372.16;4802430;29;20414;-89
2023/12/21 12:53:03;;;;;;;0.10;0.10;;;;;;;11.58;36.25;100378.84;4806784;29;20429;-89
2023/12/21 12:55:32;;;;;;;0.10;0.10;;;;;;;11.79;35.99;100367.47;4788221;29;20424;-89
2023/12/21 12:57:58;;;;;;;0.30;0.30;;;;;;;11.76;35.40;100365.16;4801526;29;20865;-92
2023/12/21 13:00:28;;;;;;;0.20;0.20;;;;;;;12.01;35.37;100355.06;4809433;29;20453;-90
2023/12/21 13:02:56;;;;;;;0.43;0.30;;;;;;;12.12;35.22;100356.41;4785266;29;20509;-91
2023/12/21 13:05:28;;;;;;;0.30;0.30;;;;;;;12.18;35.12;100355.63;4802293;29;20438;-90
2023/12/21 13:08:06;;;;;;;0.95;0.95;;;;;;;12.29;35.29;100372.09;4793140;29;20410;-89
2023/12/21 13:10:31;;;;;;;0.20;0.20;;;;;;;12.50;35.16;100355.34;4793743;29;20406;-90
2023/12/21 13:13:00;;;;;;;0.30;0.30;;;;;;;12.30;35.72;100344.50;4793436;29;20431;-90
2023/12/21 13:15:31;;;;;;;1.35;1.15;;;;;;;12.35;36.07;100342.94;4796402;29;20399;-91
2023/12/21 13:18:11;;;;;;;0.30;0.30;;;;;;;12.39;36.67;100332.75;4824078;29;20394;-90
2023/12/21 13:20:55;;;;;;;0.20;0.20;;;;;;;12.37;36.39;100332.94;4792567;29;20409;-89
2023/12/21 13:23:32;;;;;;;0.20;0.20;;;;;;;12.18;36.66;100320.28;4810356;29;20421;-90
2023/12/21 13:26:07;;;;;;;0.10;0.10;;;;;;;12.40;36.69;100319.22;4779260;29;20456;-90
2023/12/21 13:29:48;;;;;;;;;;;;;;;;;;;;;
2023/12/21 13:32:01;;;;;;;;;;;;;;;;;;;;;
2023/12/21 13:35:17;;;;;;;0.50;0.32;;;;;;;12.04;36.80;100329.94;4798064;30;20491;-90
2023/12/21 13:37:53;;;;;;;0.35;0.35;;;;;;;12.23;36.65;100339.94;4785350;30;20444;-89
2023/12/21 13:43:35;;;;;;;0.40;0.40;;;;;;;12.31;36.57;100323.03;4766707;30;20430;-89
2023/12/21 13:49:48;;;;;;;0.40;0.40;;;;;;;12.24;36.59;100327.47;4742718;30;20429;-92
2023/12/21 13:52:15;;;;;;;0.50;0.45;;;;;;;12.22;36.40;100313.56;4743028;30;20828;-90
2023/12/21 13:55:32;;;;;;;;;;;;;;;;;;;;;
2023/12/21 13:58:53;;;;;;;;;;;;;;;;;;;;;
2023/12/21 14:01:13;;;;;;;0.17;0.17;;;;;;;12.43;35.74;100318.03;4767176;30;20497;-92
2023/12/21 14:04:00;;;;;;;;;;;;;;;;;;;;;
2023/12/21 14:06:33;;;;;;;1.20;1.00;;;;;;;12.55;36.06;100305.03;4738649;30;20461;-90
2023/12/21 14:09:08;;;;;;;0.47;0.47;;;;;;;12.66;36.32;100309.84;4723248;30;20449;-90
2023/12/21 14:11:34;;;;;;;0.30;0.30;;;;;;;12.74;36.33;100298.22;4778549;30;20416;-90
2023/12/21 14:14:01;;;;;;;0.28;0.28;;;;;;;12.71;36.19;100302.13;4792958;30;20420;-90
2023/12/21 14:16:27;;;;;;;0.25;0.25;;;;;;;12.68;36.41;100307.81;4795282;30;20983;-88
2023/12/21 14:19:04;;;;;;;0.20;0.20;;;;;;;12.58;36.54;100297.50;4777327;30;20423;-90
2023/12/21 14:21:40;;;;;;;0.20;0.20;;;;;;;12.38;36.68;100296.53;4794048;30;20505;-89
2023/12/21 14:24:08;;;;;;;1.50;1.40;;;;;;;12.14;36.64;100281.81;4778218;29;20412;-89
2023/12/21 14:26:35;;;;;;;0.20;0.20;;;;;;;12.11;36.93;100287.50;4811414;29;20418;-89
2023/12/21 14:29:00;;;;;;;0.10;0.10;;;;;;;11.98;37.02;100289.03;4809287;29;20441;-89
2023/12/21 14:31:34;;;;;;;0.37;0.37;;;;;;;11.93;37.10;100282.63;4795594;29;20944;-90
2023/12/21 14:33:59;;;;;;;0.50;0.40;;;;;;;11.89;37.07;100291.97;4780327;29;20402;-89
2023/12/21 14:36:30;;;;;;;0.20;0.20;;;;;;;11.79;37.16;100292.25;4794926;29;20472;-89
2023/12/21 14:38:59;;;;;;;0.20;0.20;;;;;;;11.75;37.47;100296.31;4795720;29;20409;-90
2023/12/21 14:41:28;;;;;;;0.35;0.35;;;;;;;11.84;37.66;100280.06;4793737;29;20407;-90
2023/12/21 14:43:56;;;;;;;0.30;0.30;;;;;;;11.78;37.46;100278.16;4807555;29;20406;-90
2023/12/21 14:46:22;;;;;;;0.45;0.40;;;;;;;11.72;37.48;100280.75;4793274;29;20499;-90
2023/12/21 14:48:48;;;;;;;0.20;0.20;;;;;;;11.54;37.57;100284.66;4796890;29;20761;-89
2023/12/21 14:51:16;;;;;;;0.95;0.60;;;;;;;11.38;37.63;100277.75;4798472;29;20411;-91
2023/12/21 14:53:45;;;;;;;0.25;0.15;;;;;;;11.43;37.71;100272.69;4796166;29;20409;-90
2023/12/21 14:56:12;;;;;;;0.43;0.30;;;;;;;11.41;37.44;100266.72;4781483;29;20427;-91
2023/12/21 14:58:40;;;;;;;0.60;0.60;;;;;;;11.34;37.62;100268.47;4810153;29;20439;-91
2023/12/21 15:01:06;;;;;;;0.10;0.10;;;;;;;11.12;37.68;100259.66;4810938;29;20483;-92
2023/12/21 15:03:33;;;;;;;0.10;0.10;;;;;;;11.16;37.70;100266.22;4812083;29;20417;-91
2023/12/21 15:06:30;;;;;;;;;;;;;;;;;;;;;
2023/12/21 15:08:59;;;;;;;0.32;0.32;;;;;;;11.16;37.71;100268.88;4764415;30;20491;-94
2023/12/21 15:11:27;;;;;;;0.40;0.40;;;;;;;11.13;37.96;100266.59;4766239;30;20591;-93
2023/12/21 15:14:13;;;;;;;0.45;0.38;;;;;;;11.22;37.91;100270.00;4769257;30;20436;-93
2023/12/21 15:17:09;;;;;;;0.20;0.20;;;;;;;11.23;37.57;100274.28;4752384;30;20492;-93
2023/12/21 17:22:40;;;;;;;;;;;;;;;;;;;;;
2023/12/21 17:25:48;;;;;;;0.73;0.60;;;;;;;9.21;41.71;100104.50;4760465;29;20449;-94
2023/12/21 17:28:16;;;;;;;0.82;0.75;;;;;;;9.31;41.61;100105.09;4789390;30;20420;-90
2023/12/21 17:30:43;;;;;;;0.95;0.95;;;;;;;9.19;41.79;100094.09;4794597;30;20462;-89
2023/12/21 17:33:13;;;;;;;0.47;0.47;;;;;;;9.23;41.57;100094.56;4793411;30;20523;-93
2023/12/21 17:35:49;;;;;;;1.42;1.20;;;;;;;9.24;41.31;100080.34;4779776;30;20427;-94
2023/12/21 17:38:33;;;;;;;2.30;1.77;;;;;;;9.33;41.67;100071.34;4770811;30;20438;-93
2023/12/21 17:42:24;;;;;;;;;;;;;;;;;;;;;
2023/12/21 17:44:43;;;;;;;2.60;1.73;;;;;;;9.11;41.75;100088.03;4760932;30;20425;-91
2023/12/21 17:47:43;;;;;;;1.83;1.33;;;;;;;9.02;42.16;100074.06;4784179;30;20437;-93
2023/12/21 17:50:45;;;;;;;;;;;;;;;;;;;;;
2023/12/21 17:53:32;;;;;;;0.40;0.40;;;;;;;9.00;41.69;100081.34;4723228;30;20507;-93
2023/12/21 17:56:40;;;;;;;1.10;0.82;;;;;;;9.05;41.89;100075.53;4762472;30;20433;-92
2023/12/21 17:58:55;;;;;;;0.65;0.55;;;;;;;8.93;41.87;100068.00;4741524;30;20418;-92
2023/12/21 18:01:47;;;;;;;0.80;0.70;;;;;;;8.88;41.57;100065.06;4745438;30;20422;-92
2023/12/21 18:04:28;;;;;;;0.93;0.88;;;;;;;8.92;41.76;100068.19;4776688;30;20440;-92
2023/12/21 21:02:41;;;;;;;1.77;1.15;;;;;;;7.10;45.67;99805.25;4803158;29;20470;-88
2023/12/21 21:05:06;;;;;;;0.63;0.63;;;;;;;7.07;45.68;99801.94;4800486;29;20438;-88
2023/12/21 21:07:35;;;;;;;1.05;0.82;;;;;;;7.08;45.91;99798.31;4785868;29;20419;-91
2023/12/21 21:10:01;;;;;;;1.50;1.10;;;;;;;7.20;45.45;99790.03;4777542;30;20862;-87
2023/12/21 21:12:27;;;;;;;0.60;0.60;;;;;;;7.21;45.59;99795.16;4758323;30;20451;-86
2023/12/21 21:14:53;;;;;;;0.82;0.82;;;;;;;7.17;45.57;99793.84;4779037;30;20434;-89
2023/12/21 21:17:23;;;;;;;1.25;0.90;;;;;;;7.05;45.70;99782.84;4759416;30;20672;-89
2023/12/21 21:19:50;;;;;;;0.43;0.43;;;;;;;7.08;45.86;99787.78;4774106;30;20418;-89
2023/12/21 21:22:19;;;;;;;0.90;0.90;;;;;;;7.05;46.21;99784.66;4778997;30;20414;-89
2023/12/21 21:24:46;;;;;;;0.63;0.63;;;;;;;7.12;46.40;99777.72;4768317;30;20876;-88
2023/12/21 21:27:12;;;;;;;0.75;0.55;;;;;;;7.20;46.28;99768.97;4767281;30;20445;-92
2023/12/21 21:29:49;;;;;;;0.30;0.30;;;;;;;7.07;46.58;99749.25;4774521;30;20570;-91
2023/12/21 21:32:17;;;;;;;1.27;1.10;;;;;;;7.10;46.90;99756.00;4774879;30;20429;-89
2023/12/21 21:34:53;;;;;;;;;;;;;;;;;;;;;
2023/12/21 21:37:24;;;;;;;0.30;0.30;;;;;;;7.12;47.70;99755.84;4771832;30;20424;-89
2023/12/21 21:39:55;;;;;;;0.40;0.40;;;;;;;7.12;47.29;99750.56;4757993;29;20418;-92
2023/12/21 21:42:29;;;;;;;0.20;0.20;;;;;;;7.26;47.04;99741.94;4820274;29;20407;-88
2023/12/21 21:44:57;;;;;;;0.50;0.50;;;;;;;7.34;46.80;99741.88;4808305;29;20420;-88
2023/12/21 21:47:25;;;;;;;0.80;0.80;;;;;;;7.30;47.14;99731.88;4799130;29;20429;-90
2023/12/21 21:49:54;;;;;;;1.65;0.80;;;;;;;7.15;47.22;99711.50;4791848;29;20421;-90
2023/12/21 21:52:22;;;;;;;1.38;1.10;;;;;;;7.06;47.42;99702.81;4787553;30;20456;-90
2023/12/21 21:59:53;;;;;;;0.60;0.50;;;;;;;6.91;47.71;99695.78;4764620;29;20888;-89
2023/12/21 22:02:21;;;;;;;1.00;0.95;;;;;;;6.79;47.97;99704.09;4798870;29;20475;-90
2023/12/21 22:04:47;;;;;;;0.63;0.55;;;;;;;6.65;47.98;99702.16;4769283;30;20418;-90
2023/12/21 22:07:34;;;;;;;0.22;0.22;;;;;;;6.61;48.08;99691.13;4761773;30;20429;-90
2023/12/21 22:10:21;;;;;;;1.05;0.80;;;;;;;6.62;48.31;99695.41;4774064;30;20868;-91
2023/12/21 22:12:55;;;;;;;1.02;1.02;;;;;;;6.63;48.11;99696.25;4768894;30;20507;-91
2023/12/21 22:15:26;;;;;;;0.50;0.50;;;;;;;6.57;48.37;99689.00;4771818;30;21032;-91
2023/12/21 22:17:52;;;;;;;0.93;0.82;;;;;;;6.56;48.14;99692.63;4772178;30;20487;-91
2023/12/21 22:20:19;;;;;;;2.35;1.63;;;;;;;6.51;48.73;99682.59;4760587;30;20418;-91
2023/12/21 22:22:51;;;;;;;0.83;0.83;;;;;;;6.48;48.67;99675.88;4782031;30;20704;-90
2023/12/21 22:25:20;;;;;;;1.40;1.30;;;;;;;6.58;48.35;99672.22;4766105;30;20413;-90
2023/12/21 22:27:49;;;;;;;0.70;0.70;;;;;;;6.65;48.33;99665.28;4762545;30;20415;-89
2023/12/21 22:30:15;;;;;;;0.93;0.90;;;;;;;6.44;48.49;99645.59;4786168;29;20414;-88
2023/12/21 22:32:40;;;;;;;0.60;0.60;;;;;;;6.40;49.07;99640.84;4780491;29;20997;-89
2023/12/21 22:36:06;;;;;;;2.07;1.93;;;;;;;6.60;48.55;99636.81;4767465;30;20485;-91
2023/12/21 22:38:41;;;;;;;3.08;2.17;;;;;;;6.77;48.07;99624.41;4698765;30;20460;-92
2023/12/21 22:41:20;;;;;;;;;;;;;;;;;;;;;
2023/12/21 22:44:01;;;;;;;;;;;;;;;;;;;;;
2023/12/21 22:46:32;;;;;;;0.45;0.40;;;;;;;6.97;47.39;99595.81;4697342;30;20441;-91
2023/12/21 22:49:03;;;;;;;0.47;0.40;;;;;;;7.10;47.40;99600.50;4785177;29;20497;-89
2023/12/21 22:51:31;;;;;;;0.50;0.50;;;;;;;7.03;47.25;99589.84;4782905;29;20418;-90
2023/12/21 22:54:05;;;;;;;0.30;0.30;;;;;;;7.06;47.18;99596.59;4788274;29;20456;-89
2023/12/21 22:56:47;;;;;;;;;;;;;;;;;;;;;
2023/12/21 22:59:16;;;;;;;0.70;0.63;;;;;;;7.04;47.45;99575.69;4776398;30;20434;-88
2023/12/21 23:01:43;;;;;;;0.30;0.30;;;;;;;7.03;47.31;99565.31;4789344;29;20423;-90
2023/12/21 23:04:08;;;;;;;0.93;0.82;;;;;;;7.11;47.47;99574.97;4800720;29;20424;-88
2023/12/21 23:06:41;;;;;;;1.15;0.85;;;;;;;6.92;47.74;99555.19;4778962;30;20432;-89
2023/12/21 23:09:07;;;;;;;0.30;0.30;;;;;;;6.96;47.69;99564.38;4794031;29;20524;-87
2023/12/21 23:11:33;;;;;;;0.40;0.40;;;;;;;6.93;47.61;99559.44;4789578;29;20405;-85
2023/12/21 23:14:04;;;;;;;0.47;0.47;;;;;;;7.06;47.61;99560.53;4796270;29;20408;-88
2023/12/21 23:16:30;;;;;;;0.30;0.30;;;;;;;7.08;47.55;99545.34;4774170;30;20412;-89
2023/12/21 23:18:59;;;;;;;0.28;0.28;;;;;;;7.18;47.48;99549.56;4790967;29;20416;-88
2023/12/21 23:21:25;;;;;;;0.52;0.52;;;;;;;7.25;47.13;99546.03;4797982;29;20400;-88
2023/12/21 23:23:50;;;;;;;0.50;0.35;;;;;;;7.18;47.30;99539.03;4788212;29;20495;-88
2023/12/21 23:26:18;;;;;;;0.22;0.22;;;;;;;7.22;47.13;99516.56;4786887;29;20516;-88
2023/12/21 23:28:47;;;;;;;0.70;0.70;;;;;;;7.15;47.19;99511.22;4798128;29;20416;-88
2023/12/21 23:31:12;;;;;;;0.40;0.40;;;;;;;7.13;47.31;99500.03;4772910;29;20896;-88
2023/12/21 23:33:38;;;;;;;0.20;0.20;;;;;;;7.24;47.18;99504.06;4787027;30;20473;-89
2023/12/21 23:36:08;;;;;;;0.55;0.55;;;;;;;7.22;47.25;99506.03;4795173;29;20417;-89
2023/12/21 23:38:43;;;;;;;1.70;1.60;;;;;;;7.19;47.12;99490.59;4788195;29;20420;-90
2023/12/21 23:41:12;;;;;;;0.60;0.60;;;;;;;7.13;47.54;99496.56;4804087;29;20928;-91
2023/12/21 23:43:38;;;;;;;0.77;0.77;;;;;;;7.10;47.25;99492.47;4789111;30;20792;-90
2023/12/21 23:46:04;;;;;;;0.60;0.60;;;;;;;7.09;47.52;99498.72;4788801;30;20424;-90
2023/12/21 23:48:32;;;;;;;1.40;1.38;;;;;;;7.06;47.55;99507.81;4787621;30;20419;-89
2023/12/21 23:50:58;;;;;;;0.50;0.50;;;;;;;6.93;48.02;99510.22;4787495;30;20420;-89
2023/12/21 23:53:24;;;;;;;0.30;0.30;;;;;;;6.69;48.61;99511.19;4772009;30;21605;-88
2023/12/21 23:55:52;;;;;;;0.63;0.63;;;;;;;6.63;48.49;99512.72;4787413;30;20933;-88
2023/12/21 23:58:18;;;;;;;0.30;0.30;;;;;;;6.79;48.35;99511.81;4772643;30;20424;-89
